createdAt,value
2018-12-01T00:03:38.459Z,39.97
2018-12-01T00:07:56.100Z,43.27
2018-12-01T00:12:04.890Z,38.30
2018-12-01T00:16:13.646Z,37.63
2018-12-01T00:20:23.771Z,38.20
2018-12-01T00:24:31.562Z,35.10
2018-12-01T00:28:39.286Z,36.03
2018-12-01T00:32:48.440Z,35.60
2018-12-01T00:36:56.958Z,32.33
2018-12-01T00:41:05.562Z,35.87
2018-12-01T00:45:20.702Z,35.43
2018-12-01T00:49:28.576Z,36.60
2018-12-01T00:53:36.250Z,31.33
2018-12-01T00:57:43.971Z,34.03
2018-12-01T01:01:51.529Z,36.53
2018-12-01T01:05:59.693Z,35.70
2018-12-01T01:10:10.414Z,40.63
2018-12-01T01:14:17.838Z,40.93
2018-12-01T01:18:25.656Z,42.80
2018-12-01T01:22:33.338Z,44.23
2018-12-01T01:26:41.117Z,43.30
2018-12-01T01:30:48.700Z,41.87
2018-12-01T01:34:56.502Z,36.97
2018-12-01T01:39:04.366Z,39.23
2018-12-01T01:43:13.021Z,38.33
2018-12-01T01:47:20.461Z,38.87
2018-12-01T01:51:28.303Z,39.47
2018-12-01T01:55:35.874Z,36.00
2018-12-01T01:59:43.425Z,39.60
2018-12-01T02:03:50.950Z,32.50
2018-12-01T02:08:01.810Z,44.47
2018-12-01T02:12:10.648Z,35.47
2018-12-01T02:16:18.356Z,39.10
2018-12-01T02:20:26.400Z,35.53
2018-12-01T02:24:34.258Z,35.40
2018-12-01T02:28:41.675Z,33.50
2018-12-01T02:32:52.347Z,33.23
2018-12-01T02:37:00.166Z,32.13
2018-12-01T02:41:08.755Z,30.00
2018-12-01T02:46:09.811Z,28.80
2018-12-01T02:50:24.019Z,28.37
2018-12-01T02:54:31.695Z,25.53
2018-12-01T02:58:41.117Z,26.10
2018-12-01T03:02:49.106Z,32.03
2018-12-01T03:06:56.911Z,27.30
2018-12-01T03:11:04.499Z,27.40
2018-12-01T03:15:19.787Z,27.57
2018-12-01T03:19:30.495Z,28.10
2018-12-01T03:23:38.205Z,24.50
2018-12-01T03:27:45.980Z,28.50
2018-12-01T03:31:53.559Z,28.03
2018-12-01T03:36:01.980Z,29.90
2018-12-01T03:40:10.124Z,26.43
2018-12-01T03:44:20.108Z,25.73
2018-12-01T03:48:27.959Z,28.47
2018-12-01T03:52:35.688Z,29.17
2018-12-01T03:56:43.290Z,25.83
2018-12-01T04:00:50.963Z,25.00
2018-12-01T04:04:58.574Z,25.43
2018-12-01T04:09:25.438Z,24.10
2018-12-01T04:13:34.040Z,23.77
2018-12-01T04:17:43.929Z,26.33
2018-12-01T04:21:51.375Z,26.60
2018-12-01T04:25:59.712Z,25.30
2018-12-01T04:30:33.451Z,25.67
2018-12-01T04:34:40.974Z,26.40
2018-12-01T04:38:48.967Z,29.70
2018-12-01T04:42:56.549Z,34.80
2018-12-01T04:47:04.212Z,30.87
2018-12-01T04:51:14.192Z,29.23
2018-12-01T04:55:22.737Z,28.37
2018-12-01T04:59:30.256Z,31.00
2018-12-01T05:03:37.635Z,29.60
2018-12-01T05:07:46.132Z,31.00
2018-12-01T05:11:53.905Z,28.67
2018-12-01T05:16:01.664Z,31.47
2018-12-01T05:20:22.501Z,36.07
2018-12-01T05:24:30.053Z,36.33
2018-12-01T05:28:37.577Z,36.47
2018-12-01T05:32:45.523Z,35.13
2018-12-01T05:36:55.349Z,35.60
2018-12-01T05:41:03.096Z,36.00
2018-12-01T05:45:21.653Z,32.00
2018-12-01T05:49:29.407Z,32.50
2018-12-01T05:53:42.037Z,34.60
2018-12-01T05:57:50.182Z,34.43
2018-12-01T06:01:58.041Z,32.97
2018-12-01T06:06:06.121Z,36.47
2018-12-01T06:10:23.324Z,32.73
2018-12-01T06:14:31.264Z,32.87
2018-12-01T06:18:38.958Z,33.60
2018-12-01T06:22:46.861Z,32.80
2018-12-01T06:26:54.657Z,31.57
2018-12-01T06:31:02.328Z,32.73
2018-12-01T06:35:10.178Z,32.67
2018-12-01T06:39:17.710Z,31.63
2018-12-01T06:43:25.401Z,33.20
2018-12-01T06:47:33.256Z,33.43
2018-12-01T06:51:41.694Z,33.13
2018-12-01T06:55:49.154Z,32.03
2018-12-01T06:59:56.616Z,31.33
2018-12-01T07:04:04.576Z,29.50
2018-12-01T07:08:16.832Z,29.67
2018-12-01T07:12:24.683Z,29.43
2018-12-01T07:16:32.350Z,29.40
2018-12-01T07:20:40.048Z,27.30
2018-12-01T07:24:51.618Z,28.37
2018-12-01T07:29:06.967Z,27.53
2018-12-01T07:33:14.790Z,30.53
2018-12-01T07:37:22.279Z,28.70
2018-12-01T07:41:30.137Z,28.80
2018-12-01T07:45:40.259Z,29.20
2018-12-01T07:49:48.074Z,29.90
2018-12-01T07:53:55.823Z,30.00
2018-12-01T07:58:03.821Z,30.90
2018-12-01T08:02:11.527Z,31.03
2018-12-01T08:06:29.364Z,30.90
2018-12-01T08:10:37.755Z,31.37
2018-12-01T08:14:46.126Z,31.57
2018-12-01T08:18:54.628Z,32.03
2018-12-01T08:23:04.233Z,31.90
2018-12-01T08:27:12.633Z,30.77
2018-12-01T08:31:25.878Z,30.63
2018-12-01T08:35:33.765Z,29.83
2018-12-01T08:39:41.795Z,29.10
2018-12-01T08:43:49.365Z,27.97
2018-12-01T08:47:57.403Z,27.47
2018-12-01T08:52:06.280Z,27.87
2018-12-01T08:56:13.730Z,27.00
2018-12-01T09:00:42.322Z,24.37
2018-12-01T09:04:50.003Z,24.63
2018-12-01T09:08:57.945Z,25.53
2018-12-01T09:13:05.705Z,22.47
2018-12-01T09:17:14.994Z,24.03
2018-12-01T09:21:22.595Z,24.40
2018-12-01T09:25:38.286Z,24.37
2018-12-01T09:29:47.197Z,25.47
2018-12-01T09:33:54.858Z,23.23
2018-12-01T09:38:03.071Z,21.13
2018-12-01T09:42:11.055Z,21.50
2018-12-01T09:46:19.523Z,20.93
2018-12-01T09:50:27.400Z,20.07
2018-12-01T09:54:35.217Z,17.97
2018-12-01T09:58:46.451Z,18.73
2018-12-01T10:02:52.770Z,18.80
2018-12-01T10:07:00.556Z,19.23
2018-12-01T10:11:08.197Z,18.10
2018-12-01T10:15:29.132Z,18.50
2018-12-01T10:19:36.951Z,17.80
2018-12-01T10:23:44.877Z,16.60
2018-12-01T10:27:52.849Z,17.27
2018-12-01T10:32:00.553Z,16.67
2018-12-01T10:36:09.597Z,15.40
2018-12-01T10:40:17.559Z,15.40
2018-12-01T10:44:25.583Z,15.43
2018-12-01T10:48:36.279Z,16.00
2018-12-01T10:52:44.372Z,15.10
2018-12-01T10:56:52.227Z,14.03
2018-12-01T11:01:17.046Z,13.80
2018-12-01T11:05:27.501Z,13.37
2018-12-01T11:09:35.350Z,15.13
2018-12-01T11:13:43.291Z,14.03
2018-12-01T11:17:51.371Z,12.73
2018-12-01T11:21:58.974Z,13.13
2018-12-01T11:26:06.775Z,14.17
2018-12-01T11:30:18.772Z,14.40
2018-12-01T11:34:26.183Z,15.13
2018-12-01T11:38:34.405Z,14.67
2018-12-01T11:42:42.214Z,14.67
2018-12-01T11:46:50.406Z,14.13
2018-12-01T11:50:58.141Z,12.97
2018-12-01T11:55:06.277Z,13.30
2018-12-01T11:59:13.901Z,13.20
2018-12-01T12:03:27.806Z,11.30
2018-12-01T12:08:28.061Z,13.07
2018-12-01T12:12:35.736Z,11.63
2018-12-01T12:16:43.459Z,11.77
2018-12-01T12:20:51.247Z,10.70
2018-12-01T12:25:01.002Z,11.80
2018-12-01T12:29:24.049Z,11.53
2018-12-01T12:33:35.574Z,10.17
2018-12-01T12:37:45.864Z,10.60
2018-12-01T12:41:59.585Z,11.13
2018-12-01T12:46:14.745Z,11.97
2018-12-01T12:50:26.019Z,11.23
2018-12-01T12:54:36.849Z,11.93
2018-12-01T12:58:45.751Z,11.23
2018-12-01T13:03:12.099Z,12.80
2018-12-01T13:07:20.471Z,12.37
2018-12-01T13:11:39.574Z,14.00
2018-12-01T13:15:48.881Z,13.43
2018-12-01T13:19:56.877Z,13.60
2018-12-01T13:24:04.627Z,12.83
2018-12-01T13:28:29.333Z,12.37
2018-12-01T13:32:37.737Z,12.27
2018-12-01T13:36:45.627Z,11.17
2018-12-01T13:40:56.821Z,11.23
2018-12-01T13:45:06.163Z,10.90
2018-12-01T13:49:19.801Z,10.40
2018-12-01T13:53:31.344Z,11.73
2018-12-01T13:57:47.583Z,12.20
2018-12-01T14:01:57.583Z,10.60
2018-12-01T14:06:07.495Z,10.70
2018-12-01T14:10:36.721Z,10.40
2018-12-01T14:14:45.464Z,9.50
2018-12-01T14:18:57.807Z,9.67
2018-12-01T14:23:13.606Z,9.17
2018-12-01T14:27:26.965Z,8.93
2018-12-01T14:31:47.486Z,8.87
2018-12-01T14:35:59.385Z,8.93
2018-12-01T14:40:13.872Z,7.93
2018-12-01T14:44:21.399Z,8.70
2018-12-01T14:48:28.846Z,7.87
2018-12-01T14:52:37.105Z,8.30
2018-12-01T14:56:45.518Z,8.20
2018-12-01T15:00:52.949Z,7.50
2018-12-01T15:05:00.443Z,8.03
2018-12-01T15:09:11.434Z,8.23
2018-12-01T15:13:21.486Z,7.60
2018-12-01T15:17:35.073Z,7.37
2018-12-01T15:21:46.647Z,8.13
2018-12-01T15:25:54.420Z,7.23
2018-12-01T15:30:07.749Z,7.43
2018-12-01T15:34:15.932Z,7.27
2018-12-01T15:38:23.823Z,7.70
2018-12-01T15:42:34.345Z,7.77
2018-12-01T15:46:46.255Z,61.10
2018-12-01T15:50:52.431Z,9.93
2018-12-01T15:55:02.823Z,8.10
2018-12-01T15:59:10.394Z,8.13
2018-12-01T16:03:19.975Z,8.00
2018-12-01T16:07:29.199Z,7.27
2018-12-01T16:11:37.884Z,8.20
2018-12-01T16:15:57.682Z,8.73
2018-12-01T16:20:25.822Z,8.43
2018-12-01T16:24:44.559Z,8.67
2018-12-01T16:28:54.548Z,8.77
2018-12-01T16:33:09.717Z,8.90
2018-12-01T16:37:26.454Z,8.47
2018-12-01T16:41:41.775Z,8.53
2018-12-01T16:45:55.316Z,8.67
2018-12-01T16:50:14.329Z,8.90
2018-12-01T16:54:25.066Z,8.50
2018-12-01T16:58:41.197Z,8.40
2018-12-01T17:03:11.982Z,10.07
2018-12-01T17:07:30.201Z,8.50
2018-12-01T17:11:41.934Z,8.23
2018-12-01T17:15:51.822Z,9.37
2018-12-01T17:20:00.053Z,10.70
2018-12-01T17:24:10.007Z,9.57
2018-12-01T17:28:22.699Z,9.73
2018-12-01T17:32:41.847Z,9.73
2018-12-01T17:36:51.482Z,9.13
2018-12-01T17:41:15.033Z,9.70
2018-12-01T17:45:28.633Z,10.87
2018-12-01T17:49:40.329Z,10.47
2018-12-01T17:53:59.387Z,11.70
2018-12-01T17:58:10.879Z,10.10
2018-12-01T18:02:19.241Z,10.40
2018-12-01T18:06:30.719Z,11.00
2018-12-01T18:10:48.710Z,9.17
2018-12-01T18:15:09.316Z,9.93
2018-12-01T18:19:17.968Z,9.07
2018-12-01T18:23:26.575Z,9.20
2018-12-01T18:27:36.916Z,9.87
2018-12-01T18:31:44.637Z,7.97
2018-12-01T18:35:52.466Z,7.83
2018-12-01T18:40:00.251Z,30.80
2018-12-01T18:44:09.749Z,7.83
2018-12-01T18:48:17.791Z,7.13
2018-12-01T18:52:25.907Z,7.17
2018-12-01T18:56:33.890Z,7.60
2018-12-01T19:00:49.953Z,6.93
2018-12-01T19:04:57.610Z,8.60
2018-12-01T19:09:06.313Z,7.10
2018-12-01T19:13:14.964Z,7.90
2018-12-01T19:17:22.990Z,7.93
2018-12-01T19:21:30.719Z,6.77
2018-12-01T19:25:39.285Z,7.03
2018-12-01T19:29:47.094Z,7.60
2018-12-01T19:33:54.717Z,7.30
2018-12-01T19:38:02.812Z,6.97
2018-12-01T19:42:10.775Z,7.87
2018-12-01T19:46:18.884Z,7.83
2018-12-01T19:50:39.054Z,7.73
2018-12-01T19:54:46.952Z,8.40
2018-12-01T19:58:54.769Z,7.93
2018-12-01T20:03:08.056Z,7.03
2018-12-01T20:07:16.360Z,8.30
2018-12-01T20:11:24.477Z,7.20
2018-12-01T20:15:43.770Z,8.60
2018-12-01T20:19:54.711Z,7.27
2018-12-01T20:24:04.523Z,7.30
2018-12-01T20:28:12.661Z,7.27
2018-12-01T20:32:20.743Z,8.27
2018-12-01T20:36:34.883Z,8.57
2018-12-01T20:40:43.224Z,7.30
2018-12-01T20:44:54.221Z,7.83
2018-12-01T20:49:02.470Z,6.40
2018-12-01T20:53:11.300Z,6.57
2018-12-01T20:57:33.653Z,6.50
2018-12-01T21:01:44.103Z,6.33
2018-12-01T21:05:51.990Z,6.13
2018-12-01T21:10:00.822Z,6.53
2018-12-01T21:14:09.115Z,6.13
2018-12-01T21:18:17.052Z,5.20
2018-12-01T21:22:24.964Z,4.83
2018-12-01T21:26:33.410Z,5.17
2018-12-01T21:30:41.791Z,4.50
2018-12-01T21:34:49.526Z,4.40
2018-12-01T21:38:57.331Z,4.50
2018-12-01T21:43:05.523Z,4.40
2018-12-01T21:47:13.395Z,4.30
2018-12-01T21:51:21.255Z,5.20
2018-12-01T21:55:29.259Z,4.30
2018-12-01T21:59:37.124Z,6.23
2018-12-01T22:03:45.015Z,4.70
2018-12-01T22:07:52.761Z,3.80
2018-12-01T22:12:01.430Z,3.67
2018-12-01T22:16:11.273Z,4.20
2018-12-01T22:20:25.948Z,4.40
2018-12-01T22:24:35.792Z,4.60
2018-12-01T22:28:43.470Z,4.03
2018-12-01T22:33:20.849Z,4.63
2018-12-01T22:37:28.431Z,4.80
2018-12-01T22:41:36.053Z,4.57
2018-12-01T22:45:44.868Z,4.40
2018-12-01T22:49:52.483Z,3.87
2018-12-01T22:54:00.509Z,3.43
2018-12-01T22:58:14.009Z,4.10
2018-12-01T23:02:21.631Z,3.80
2018-12-01T23:06:29.428Z,4.27
2018-12-01T23:10:37.065Z,3.87
2018-12-01T23:14:44.988Z,3.40
2018-12-01T23:18:52.931Z,4.70
2018-12-01T23:23:02.936Z,4.13
2018-12-01T23:27:13.136Z,4.03
2018-12-01T23:31:19.314Z,3.97
2018-12-01T23:35:26.931Z,3.87
2018-12-01T23:39:34.652Z,3.90
2018-12-01T23:43:42.261Z,5.30
2018-12-01T23:47:50.592Z,3.97
2018-12-01T23:52:00.915Z,4.97
2018-12-01T23:56:11.877Z,4.50
